Palic, Serbia
Current Conditions -  °F | °C
As of 2:15 PM on Thursday 30 Oct 2014 (Local Time) from LHUD Reporting Station
Broken Clouds Broken Clouds  
Wind Chill: 50°   Ceiling: 3000
Heat Index: 50°   Visibility: 5mi
Dew Point: 39°   Wind: 5mph
Humidity: 66%   Direction: 330°NNW
Pressure: 30.3"   Gusts: NA
Location:  46.11°N, 19.77°E
Report Text: LHUD 301215Z 33004KT 8000 BKN030 10/04 Q1026
Loading
Personal Weather Stations






























Interactive Weather Map
Tropical Storm Tracking
New forecast layout! Learn more

10-Day Weather Forecast

Advertisements
Track Severe Weather on mobile